createdAt,value
2018-08-28T00:00:39.570Z,9.80
2018-08-28T00:03:06.800Z,9.27
2018-08-28T00:05:33.917Z,10.37
2018-08-28T00:08:01.289Z,19.43
2018-08-28T00:10:28.474Z,9.57
2018-08-28T00:12:55.809Z,9.73
2018-08-28T00:15:22.957Z,8.07
2018-08-28T00:17:50.122Z,13.17
2018-08-28T00:20:17.252Z,10.87
2018-08-28T00:22:44.389Z,12.60
2018-08-28T00:25:11.472Z,11.33
2018-08-28T00:27:38.819Z,11.80
2018-08-28T00:30:05.966Z,10.13
2018-08-28T00:32:33.820Z,9.33
2018-08-28T00:35:00.916Z,10.73
2018-08-28T00:37:28.080Z,14.17
2018-08-28T00:39:55.231Z,8.60
2018-08-28T00:42:22.450Z,10.37
2018-08-28T00:44:49.673Z,9.03
2018-08-28T00:47:16.769Z,8.60
2018-08-28T00:49:43.945Z,11.17
2018-08-28T00:52:11.081Z,10.23
2018-08-28T00:54:38.189Z,8.13
2018-08-28T00:57:05.349Z,9.63
2018-08-28T00:59:32.643Z,12.40
2018-08-28T01:01:59.847Z,12.93
2018-08-28T01:04:26.992Z,10.97
2018-08-28T01:06:54.115Z,9.57
2018-08-28T01:09:21.257Z,8.90
2018-08-28T01:11:48.469Z,11.83
2018-08-28T01:14:15.652Z,11.03
2018-08-28T01:16:42.803Z,11.50
2018-08-28T01:19:09.998Z,11.67
2018-08-28T01:21:37.150Z,8.70
2018-08-28T01:24:04.497Z,10.63
2018-08-28T01:26:32.772Z,9.40
2018-08-28T01:28:59.969Z,12.70
2018-08-28T01:31:27.107Z,10.83
2018-08-28T01:33:54.228Z,10.00
2018-08-28T01:36:21.374Z,10.13
2018-08-28T01:38:48.490Z,10.23
2018-08-28T01:41:15.620Z,9.33
2018-08-28T01:43:42.743Z,11.50
2018-08-28T01:46:09.867Z,9.07
2018-08-28T01:48:37.064Z,12.00
2018-08-28T01:51:04.595Z,11.10
2018-08-28T01:53:31.776Z,14.73
2018-08-28T01:55:58.928Z,8.97
2018-08-28T01:58:26.045Z,10.20
2018-08-28T02:00:53.294Z,9.83
2018-08-28T02:03:20.519Z,8.87
2018-08-28T02:05:47.660Z,17.53
2018-08-28T02:08:14.794Z,8.90
2018-08-28T02:10:41.937Z,10.20
2018-08-28T02:13:09.071Z,8.70
2018-08-28T02:15:36.284Z,9.40
2018-08-28T02:18:03.439Z,9.60
2018-08-28T02:20:30.725Z,8.80
2018-08-28T02:22:57.945Z,9.93
2018-08-28T02:25:25.096Z,12.20
2018-08-28T02:27:52.512Z,9.37
2018-08-28T02:30:19.633Z,13.40
2018-08-28T02:32:47.060Z,11.07
2018-08-28T02:35:14.182Z,10.93
2018-08-28T02:37:41.446Z,9.53
2018-08-28T02:40:08.598Z,12.30
2018-08-28T02:42:35.760Z,11.20
2018-08-28T02:45:02.913Z,7.43
2018-08-28T02:47:30.064Z,10.13
2018-08-28T02:49:58.220Z,13.07
2018-08-28T02:52:25.328Z,14.10
2018-08-28T02:54:52.519Z,11.33
2018-08-28T02:57:19.633Z,10.67
2018-08-28T02:59:46.760Z,12.13
2018-08-28T03:02:13.862Z,9.77
2018-08-28T03:04:41.127Z,10.03
2018-08-28T03:07:08.305Z,9.13
2018-08-28T03:09:35.437Z,9.70
2018-08-28T03:12:02.619Z,11.20
2018-08-28T03:14:29.769Z,9.73
2018-08-28T03:16:56.889Z,11.23
2018-08-28T03:19:24.119Z,11.07
2018-08-28T03:21:51.240Z,9.87
2018-08-28T03:24:18.433Z,10.23
2018-08-28T03:26:45.617Z,11.23
2018-08-28T03:29:12.821Z,12.23
2018-08-28T03:31:39.860Z,10.30
2018-08-28T03:34:07.003Z,13.83
2018-08-28T03:36:34.101Z,13.23
2018-08-28T03:39:01.225Z,9.87
2018-08-28T03:41:28.346Z,9.63
2018-08-28T03:43:55.949Z,14.40
2018-08-28T03:46:23.120Z,11.80
2018-08-28T03:48:50.312Z,11.40
2018-08-28T03:51:17.456Z,10.77
2018-08-28T03:53:44.631Z,8.90
2018-08-28T03:56:11.720Z,11.87
2018-08-28T03:58:38.890Z,9.87
2018-08-28T04:01:06.046Z,11.43
2018-08-28T04:03:33.331Z,8.90
2018-08-28T04:06:00.424Z,10.90
2018-08-28T04:08:27.618Z,11.23
2018-08-28T04:10:54.752Z,13.63
2018-08-28T04:13:21.955Z,15.93
2018-08-28T04:15:49.125Z,13.80
2018-08-28T04:18:16.365Z,11.37
2018-08-28T04:20:43.545Z,12.50
2018-08-28T04:23:10.706Z,13.77
2018-08-28T04:25:37.892Z,15.50
2018-08-28T04:28:05.017Z,10.77
2018-08-28T04:30:32.285Z,13.07
2018-08-28T04:32:59.372Z,13.73
2018-08-28T04:35:26.451Z,12.53
2018-08-28T04:37:55.263Z,11.23
2018-08-28T04:40:23.515Z,11.80
2018-08-28T04:42:50.659Z,16.10
2018-08-28T04:45:17.841Z,10.23
2018-08-28T04:47:45.026Z,12.33
2018-08-28T04:50:12.221Z,14.23
2018-08-28T04:52:40.652Z,18.67
2018-08-28T04:55:07.813Z,10.07
2018-08-28T04:57:35.592Z,17.00
2018-08-28T05:00:02.870Z,13.40
2018-08-28T05:02:36.417Z,10.53
2018-08-28T05:05:07.801Z,14.60
2018-08-28T05:07:35.076Z,18.47
2018-08-28T05:10:05.525Z,17.57
2018-08-28T05:12:32.803Z,16.40
2018-08-28T05:15:00.029Z,17.20
2018-08-28T05:17:27.259Z,14.97
2018-08-28T05:19:54.710Z,11.77
2018-08-28T05:22:22.344Z,13.20
2018-08-28T05:24:49.606Z,15.50
2018-08-28T05:27:16.971Z,13.53
2018-08-28T05:29:44.277Z,15.97
2018-08-28T05:32:11.522Z,15.50
2018-08-28T05:34:38.776Z,14.10
2018-08-28T05:37:06.097Z,17.37
2018-08-28T05:39:33.326Z,20.87
2018-08-28T05:42:00.518Z,18.77
2018-08-28T05:44:27.821Z,18.43
2018-08-28T05:46:55.068Z,30.03
2018-08-28T05:49:24.285Z,23.23
2018-08-28T05:51:51.493Z,39.33
2018-08-28T05:54:18.672Z,23.83
2018-08-28T05:56:45.807Z,20.60
2018-08-28T05:59:12.915Z,18.67
2018-08-28T06:01:40.088Z,14.40
2018-08-28T06:04:07.218Z,15.37
2018-08-28T06:06:35.433Z,16.07
2018-08-28T06:09:03.048Z,16.47
2018-08-28T06:11:30.276Z,15.53
2018-08-28T06:13:57.467Z,16.10
2018-08-28T06:16:24.616Z,33.13
2018-08-28T06:18:52.969Z,29.83
2018-08-28T06:21:20.431Z,30.03
2018-08-28T06:23:47.845Z,36.70
2018-08-28T06:26:15.024Z,41.83
2018-08-28T06:28:42.214Z,41.87
2018-08-28T06:31:10.392Z,39.77
2018-08-28T06:33:37.784Z,37.23
2018-08-28T06:36:05.054Z,39.83
2018-08-28T06:38:32.180Z,32.90
2018-08-28T06:41:02.470Z,37.67
2018-08-28T06:43:30.059Z,33.03
2018-08-28T06:45:57.414Z,34.40
2018-08-28T06:48:24.670Z,30.47
2018-08-28T06:50:52.207Z,25.43
2018-08-28T06:53:19.380Z,28.40
2018-08-28T06:55:46.604Z,38.00
2018-08-28T06:58:13.769Z,44.93
2018-08-28T07:00:40.921Z,28.27
2018-08-28T07:03:08.050Z,26.17
2018-08-28T07:05:35.270Z,29.33
2018-08-28T07:08:02.609Z,37.10
2018-08-28T07:10:29.785Z,17.70
2018-08-28T07:12:57.111Z,36.10
2018-08-28T07:15:24.283Z,23.93
2018-08-28T07:17:51.543Z,24.87
2018-08-28T07:20:18.748Z,23.03
2018-08-28T07:22:45.881Z,22.93
2018-08-28T07:25:13.168Z,24.00
2018-08-28T07:27:40.327Z,17.23
2018-08-28T07:30:07.497Z,25.87
2018-08-28T07:32:34.702Z,21.40
2018-08-28T07:35:01.926Z,19.27
2018-08-28T07:37:31.447Z,17.73
2018-08-28T07:39:58.572Z,18.00
2018-08-28T07:42:25.811Z,15.50
2018-08-28T07:44:53.056Z,16.57
2018-08-28T07:47:20.210Z,19.67
2018-08-28T07:49:47.433Z,16.00
2018-08-28T07:52:14.673Z,20.90
2018-08-28T07:54:42.069Z,15.77
2018-08-28T07:57:09.248Z,16.77
2018-08-28T07:59:36.493Z,14.40
2018-08-28T08:02:03.855Z,17.83
2018-08-28T08:04:31.083Z,19.97
2018-08-28T08:06:58.438Z,16.03
2018-08-28T08:09:25.834Z,15.70
2018-08-28T08:11:53.039Z,15.40
2018-08-28T08:14:20.217Z,19.00
2018-08-28T08:16:47.575Z,11.87
2018-08-28T08:19:14.882Z,19.60
2018-08-28T08:21:42.023Z,12.63
2018-08-28T08:24:09.252Z,16.00
2018-08-28T08:26:36.466Z,14.83
2018-08-28T08:29:04.826Z,15.17
2018-08-28T08:31:32.054Z,27.07
2018-08-28T08:34:01.336Z,30.17
2018-08-28T08:36:28.537Z,20.77
2018-08-28T08:38:55.748Z,18.77
2018-08-28T08:41:23.021Z,17.30
2018-08-28T08:43:50.330Z,15.00
2018-08-28T08:46:18.729Z,15.87
2018-08-28T08:48:46.030Z,12.37
2018-08-28T08:51:13.168Z,13.20
2018-08-28T08:53:40.438Z,11.40
2018-08-28T08:56:07.645Z,13.13
2018-08-28T08:58:34.761Z,31.50
2018-08-28T09:01:01.995Z,19.60
2018-08-28T09:03:29.402Z,11.43
2018-08-28T09:05:56.796Z,10.33
2018-08-28T09:08:23.977Z,13.43
2018-08-28T09:10:51.196Z,8.43
2018-08-28T09:13:18.353Z,11.57
2018-08-28T09:15:45.560Z,13.03
2018-08-28T09:18:12.981Z,12.60
2018-08-28T09:20:40.277Z,12.83
2018-08-28T09:23:08.771Z,30.63
2018-08-28T09:25:36.313Z,12.63
2018-08-28T09:28:04.954Z,11.73
2018-08-28T09:30:32.083Z,17.93
2018-08-28T09:32:59.303Z,10.60
2018-08-28T09:35:26.473Z,11.60
2018-08-28T09:37:54.636Z,22.97
2018-08-28T09:40:21.840Z,12.53
2018-08-28T09:42:49.020Z,13.93
2018-08-28T09:45:16.176Z,11.80
2018-08-28T09:47:43.489Z,14.97
2018-08-28T09:50:10.792Z,9.93
2018-08-28T09:52:38.035Z,14.23
2018-08-28T09:55:05.357Z,11.20
2018-08-28T09:57:32.516Z,12.90
2018-08-28T10:00:00.089Z,12.13
2018-08-28T10:02:27.346Z,10.20
2018-08-28T10:04:54.564Z,11.97
2018-08-28T10:07:21.752Z,20.00
2018-08-28T10:09:48.987Z,13.83
2018-08-28T10:12:16.163Z,9.60
2018-08-28T10:14:43.415Z,11.67
2018-08-28T10:17:10.739Z,12.53
2018-08-28T10:19:38.080Z,14.27
2018-08-28T10:22:05.801Z,10.70
2018-08-28T10:24:33.222Z,11.17
2018-08-28T10:27:00.508Z,11.07
2018-08-28T10:29:27.719Z,10.73
2018-08-28T10:31:54.904Z,13.57
2018-08-28T10:34:22.082Z,37.60
2018-08-28T10:36:49.304Z,12.97
2018-08-28T10:39:16.493Z,9.80
2018-08-28T10:41:43.750Z,14.00
2018-08-28T10:44:11.061Z,13.77
2018-08-28T10:46:38.530Z,10.13
2018-08-28T10:49:05.762Z,11.90
2018-08-28T10:51:33.606Z,8.17
2018-08-28T10:54:00.833Z,8.40
2018-08-28T10:56:28.036Z,8.20
2018-08-28T10:58:56.541Z,16.67
2018-08-28T11:01:23.773Z,11.80
2018-08-28T11:03:50.944Z,14.13
2018-08-28T11:06:18.262Z,12.40
2018-08-28T11:08:45.710Z,10.10
2018-08-28T11:11:12.852Z,12.20
2018-08-28T11:13:40.109Z,12.30
2018-08-28T11:16:11.410Z,16.90
2018-08-28T11:18:38.589Z,11.97
2018-08-28T11:21:05.855Z,13.20
2018-08-28T11:23:33.035Z,9.47
2018-08-28T11:26:00.260Z,11.10
2018-08-28T11:28:27.439Z,12.10
2018-08-28T11:30:54.660Z,13.60
2018-08-28T11:33:21.880Z,13.83
2018-08-28T11:35:49.211Z,12.63
2018-08-28T11:38:16.625Z,10.67
2018-08-28T11:40:43.807Z,8.63
2018-08-28T11:43:11.071Z,12.57
2018-08-28T11:45:38.257Z,9.97
2018-08-28T11:48:05.631Z,9.80
2018-08-28T11:50:33.896Z,10.40
2018-08-28T11:53:01.119Z,9.73
2018-08-28T11:55:28.266Z,12.40
2018-08-28T11:57:55.579Z,11.20
2018-08-28T12:00:22.778Z,9.27
2018-08-28T12:02:50.150Z,9.00
2018-08-28T12:05:17.493Z,9.13
2018-08-28T12:07:44.873Z,10.13
2018-08-28T12:10:12.076Z,17.53
2018-08-28T12:12:39.583Z,9.77
2018-08-28T12:15:07.968Z,12.60
2018-08-28T12:17:35.496Z,13.50
2018-08-28T12:20:02.720Z,12.73
2018-08-28T12:22:30.232Z,22.90
2018-08-28T12:24:57.511Z,15.27
2018-08-28T12:27:24.928Z,17.00
2018-08-28T12:29:52.309Z,11.73
2018-08-28T12:32:19.522Z,9.30
2018-08-28T12:34:46.778Z,9.37
2018-08-28T12:37:14.103Z,9.27
2018-08-28T12:39:41.315Z,13.00
2018-08-28T12:42:08.528Z,8.20
2018-08-28T12:44:35.822Z,13.00
2018-08-28T12:47:03.187Z,14.83
2018-08-28T12:49:30.410Z,10.40
2018-08-28T12:51:57.684Z,9.00
2018-08-28T12:54:25.937Z,18.53
2018-08-28T12:56:54.171Z,9.40
2018-08-28T12:59:21.346Z,9.87
2018-08-28T13:01:48.881Z,10.77
2018-08-28T13:04:16.073Z,11.77
2018-08-28T13:06:43.252Z,12.80
2018-08-28T13:09:10.529Z,9.03
2018-08-28T13:11:37.736Z,10.60
2018-08-28T13:14:05.091Z,10.10
2018-08-28T13:16:32.308Z,27.07
2018-08-28T13:19:02.785Z,30.70
2018-08-28T13:21:29.906Z,20.13
2018-08-28T13:23:57.206Z,9.27
2018-08-28T13:26:24.402Z,10.03
2018-08-28T13:28:51.562Z,24.67
2018-08-28T13:31:18.697Z,16.53
2018-08-28T13:33:45.969Z,11.47
2018-08-28T13:36:13.230Z,8.43
2018-08-28T13:38:40.601Z,9.90
2018-08-28T13:41:07.865Z,9.50
2018-08-28T13:43:35.025Z,9.43
2018-08-28T13:46:02.361Z,14.47
2018-08-28T13:48:31.761Z,10.30
2018-08-28T13:50:58.998Z,12.70
2018-08-28T13:53:26.301Z,8.07
2018-08-28T13:55:53.512Z,10.03
2018-08-28T13:58:20.836Z,10.23
2018-08-28T14:00:48.175Z,6.63
2018-08-28T14:03:15.559Z,6.47
2018-08-28T14:05:42.902Z,9.47
2018-08-28T14:08:10.719Z,11.10
2018-08-28T14:10:42.213Z,7.93
2018-08-28T14:13:09.589Z,7.13
2018-08-28T14:15:36.870Z,11.50
2018-08-28T14:18:30.450Z,8.70
2018-08-28T14:21:00.940Z,14.10
2018-08-28T14:23:28.289Z,7.00
2018-08-28T14:25:55.640Z,8.33
2018-08-28T14:28:22.812Z,9.40
2018-08-28T14:31:02.277Z,8.40
2018-08-28T14:33:29.667Z,9.73
2018-08-28T14:35:59.816Z,11.10
2018-08-28T14:38:27.141Z,9.60
2018-08-28T14:40:59.189Z,7.33
2018-08-28T14:43:26.432Z,13.00
2018-08-28T14:45:53.664Z,11.63
2018-08-28T14:48:21.055Z,8.87
2018-08-28T14:50:48.254Z,6.57
2018-08-28T14:53:15.502Z,6.63
2018-08-28T14:55:42.799Z,6.87
2018-08-28T14:58:10.076Z,12.60
2018-08-28T15:00:37.217Z,7.70
2018-08-28T15:03:04.527Z,7.17
2018-08-28T15:05:31.806Z,7.13
2018-08-28T15:07:59.041Z,9.17
2018-08-28T15:10:26.280Z,6.40
2018-08-28T15:12:53.543Z,7.10
2018-08-28T15:15:20.894Z,9.80
2018-08-28T15:17:48.069Z,8.30
2018-08-28T15:20:15.189Z,7.03
2018-08-28T15:22:43.325Z,8.73
2018-08-28T15:25:10.828Z,8.27
2018-08-28T15:27:38.115Z,7.10
2018-08-28T15:30:06.578Z,6.90
2018-08-28T15:32:33.884Z,7.40
2018-08-28T15:35:01.008Z,8.43
2018-08-28T15:37:28.495Z,9.97
2018-08-28T15:39:55.683Z,6.33
2018-08-28T15:42:24.989Z,10.13
2018-08-28T15:44:52.175Z,7.30
2018-08-28T15:47:19.400Z,8.93
2018-08-28T15:49:46.688Z,7.90
2018-08-28T15:52:14.519Z,7.50
2018-08-28T15:54:41.839Z,9.47
2018-08-28T15:57:09.134Z,7.53
2018-08-28T15:59:36.402Z,6.47
2018-08-28T16:02:05.966Z,7.53
2018-08-28T16:04:33.179Z,7.90
2018-08-28T16:07:00.400Z,7.60
2018-08-28T16:09:27.636Z,11.33
2018-08-28T16:11:54.954Z,12.30
2018-08-28T16:14:22.360Z,11.73
2018-08-28T16:16:49.687Z,11.43
2018-08-28T16:19:17.307Z,14.80
2018-08-28T16:21:46.864Z,9.30
2018-08-28T16:24:14.286Z,10.00
2018-08-28T16:26:41.501Z,10.60
2018-08-28T16:29:09.349Z,15.90
2018-08-28T16:31:36.611Z,8.30
2018-08-28T16:34:04.879Z,13.00
2018-08-28T16:36:33.071Z,8.43
2018-08-28T16:39:00.385Z,9.53
2018-08-28T16:41:27.561Z,10.43
2018-08-28T16:43:54.774Z,8.33
2018-08-28T16:46:22.049Z,7.20
2018-08-28T16:48:49.229Z,7.50
2018-08-28T16:51:16.452Z,7.37
2018-08-28T16:53:43.901Z,8.47
2018-08-28T16:56:11.143Z,21.10
2018-08-28T16:58:38.308Z,29.60
2018-08-28T17:01:06.456Z,20.13
2018-08-28T17:03:33.705Z,10.87
2018-08-28T17:06:01.333Z,15.60
2018-08-28T17:08:28.464Z,9.37
2018-08-28T17:10:55.577Z,7.77
2018-08-28T17:13:22.813Z,8.50
2018-08-28T17:15:52.106Z,8.73
2018-08-28T17:18:19.224Z,6.87
2018-08-28T17:20:47.456Z,9.83
2018-08-28T17:23:15.497Z,8.50
2018-08-28T17:25:42.713Z,8.30
2018-08-28T17:28:10.069Z,9.80
2018-08-28T17:30:37.262Z,8.10
2018-08-28T17:33:04.782Z,9.60
2018-08-28T17:35:32.043Z,8.70
2018-08-28T17:37:59.232Z,13.27
2018-08-28T17:40:26.352Z,10.30
2018-08-28T17:42:53.461Z,9.60
2018-08-28T17:45:20.671Z,8.97
2018-08-28T17:47:48.143Z,9.20
2018-08-28T17:50:15.447Z,15.50
2018-08-28T17:52:42.638Z,7.70
2018-08-28T17:55:09.942Z,10.97
2018-08-28T17:57:37.178Z,10.47
2018-08-28T18:00:05.926Z,10.57
2018-08-28T18:02:33.193Z,11.80
2018-08-28T18:05:00.381Z,12.90
2018-08-28T18:07:27.547Z,14.50
2018-08-28T18:09:54.717Z,14.13
2018-08-28T18:12:21.870Z,14.80
2018-08-28T18:14:49.134Z,11.47
2018-08-28T18:17:16.382Z,14.13
2018-08-28T18:19:45.790Z,9.70
2018-08-28T18:22:13.040Z,14.27
2018-08-28T18:24:42.297Z,13.20
2018-08-28T18:27:09.518Z,14.60
2018-08-28T18:29:36.713Z,9.77
2018-08-28T18:32:04.196Z,8.77
2018-08-28T18:34:36.033Z,12.47
2018-08-28T18:37:13.687Z,14.90
2018-08-28T18:39:41.217Z,14.53
2018-08-28T18:42:10.632Z,13.50
2018-08-28T18:44:37.729Z,10.63
2018-08-28T18:47:05.230Z,13.53
2018-08-28T18:49:32.464Z,12.03
2018-08-28T18:51:59.976Z,17.47
2018-08-28T18:54:27.066Z,13.10
2018-08-28T18:56:54.734Z,14.50
2018-08-28T18:59:21.972Z,14.27
2018-08-28T19:01:49.179Z,15.10
2018-08-28T19:04:16.751Z,10.67
2018-08-28T19:06:46.386Z,13.37
2018-08-28T19:09:13.690Z,14.50
2018-08-28T19:11:40.769Z,15.03
2018-08-28T19:14:08.033Z,13.90
2018-08-28T19:16:35.294Z,15.23
2018-08-28T19:19:02.553Z,12.47
2018-08-28T19:21:29.768Z,13.97
2018-08-28T19:23:56.962Z,14.70
2018-08-28T19:26:24.191Z,13.40
2018-08-28T19:28:51.589Z,12.97
2018-08-28T19:31:19.875Z,14.00
2018-08-28T19:33:47.305Z,17.80
2018-08-28T19:36:18.775Z,12.13
2018-08-28T19:38:45.960Z,12.17
2018-08-28T19:41:13.260Z,9.93
2018-08-28T19:43:40.385Z,10.93
2018-08-28T19:46:07.722Z,10.63
2018-08-28T19:48:35.000Z,13.27
2018-08-28T19:51:02.285Z,14.83
2018-08-28T19:53:29.457Z,15.20
2018-08-28T19:55:57.217Z,15.20
2018-08-28T19:58:25.214Z,14.70
2018-08-28T20:00:52.421Z,17.93
2018-08-28T20:03:19.678Z,14.40
2018-08-28T20:05:46.903Z,18.60
2018-08-28T20:08:14.044Z,14.57
2018-08-28T20:10:41.279Z,11.40
2018-08-28T20:13:08.557Z,13.33
2018-08-28T20:15:35.849Z,14.40
2018-08-28T20:18:03.138Z,16.50
2018-08-28T20:20:30.293Z,16.57
2018-08-28T20:22:57.573Z,14.50
2018-08-28T20:25:24.709Z,15.23
2018-08-28T20:27:52.015Z,13.97
2018-08-28T20:30:19.310Z,14.17
2018-08-28T20:32:46.480Z,12.63
2018-08-28T20:35:13.820Z,12.90
2018-08-28T20:37:41.741Z,11.57
2018-08-28T20:40:08.983Z,12.57
2018-08-28T20:42:36.309Z,13.80
2018-08-28T20:45:04.714Z,14.20
2018-08-28T20:47:32.283Z,14.03
2018-08-28T20:49:59.514Z,22.57
2018-08-28T20:52:26.821Z,12.03
2018-08-28T20:54:54.340Z,13.73
2018-08-28T20:57:23.756Z,15.50
2018-08-28T20:59:50.949Z,13.23
2018-08-28T21:02:18.168Z,12.37
2018-08-28T21:04:47.117Z,11.50
2018-08-28T21:07:14.342Z,12.57
2018-08-28T21:09:41.864Z,11.33
2018-08-28T21:12:09.015Z,12.60
2018-08-28T21:14:36.415Z,12.80
2018-08-28T21:17:04.287Z,11.43
2018-08-28T21:19:31.578Z,11.27
2018-08-28T21:21:58.965Z,12.30
2018-08-28T21:24:26.265Z,11.73
2018-08-28T21:26:53.433Z,16.67
2018-08-28T21:29:20.678Z,15.17
2018-08-28T21:31:47.873Z,21.83
2018-08-28T21:34:15.223Z,20.53
2018-08-28T21:36:42.407Z,18.07
2018-08-28T21:39:10.005Z,16.53
2018-08-28T21:41:37.903Z,13.17
2018-08-28T21:44:05.351Z,13.37
2018-08-28T21:46:33.004Z,12.47
2018-08-28T21:49:00.690Z,10.73
2018-08-28T21:51:27.847Z,9.67
2018-08-28T21:53:55.476Z,9.40
2018-08-28T21:56:22.884Z,11.87
2018-08-28T21:58:50.184Z,12.30
2018-08-28T22:01:17.441Z,10.07
2018-08-28T22:03:44.676Z,10.03
2018-08-28T22:06:17.624Z,8.73
2018-08-28T22:08:45.080Z,10.73
2018-08-28T22:11:12.585Z,11.60
2018-08-28T22:13:40.885Z,11.80
2018-08-28T22:16:09.520Z,11.90
2018-08-28T22:18:36.918Z,11.63
2018-08-28T22:21:04.557Z,10.50
2018-08-28T22:23:36.477Z,11.27
2018-08-28T22:26:04.216Z,12.53
2018-08-28T22:28:31.553Z,11.53
2018-08-28T22:30:58.902Z,11.60
2018-08-28T22:33:26.149Z,10.13
2018-08-28T22:35:53.369Z,13.93
2018-08-28T22:38:20.677Z,11.17
2018-08-28T22:40:47.725Z,12.00
2018-08-28T22:43:21.709Z,9.93
2018-08-28T22:45:49.297Z,10.40
2018-08-28T22:48:16.486Z,8.03
2018-08-28T22:50:44.081Z,10.80
2018-08-28T22:53:11.189Z,12.90
2018-08-28T22:55:38.553Z,10.63
2018-08-28T22:58:05.624Z,9.67
2018-08-28T23:00:32.872Z,10.70
2018-08-28T23:03:00.032Z,12.40
2018-08-28T23:05:27.095Z,10.40
2018-08-28T23:07:54.170Z,10.70
2018-08-28T23:10:21.273Z,15.97
2018-08-28T23:12:48.908Z,10.20
2018-08-28T23:15:16.041Z,11.60
2018-08-28T23:17:43.165Z,11.47
2018-08-28T23:20:10.253Z,9.57
2018-08-28T23:22:37.439Z,12.70
2018-08-28T23:25:04.628Z,11.20
2018-08-28T23:27:31.757Z,10.60
2018-08-28T23:29:58.946Z,14.10
2018-08-28T23:32:26.071Z,12.53
2018-08-28T23:34:53.169Z,9.40
2018-08-28T23:37:20.240Z,9.67
2018-08-28T23:39:47.368Z,8.87
2018-08-28T23:42:14.418Z,10.50
2018-08-28T23:44:41.552Z,10.90
2018-08-28T23:47:08.702Z,10.87
2018-08-28T23:49:35.985Z,9.07
2018-08-28T23:52:03.239Z,10.83
2018-08-28T23:54:30.337Z,11.63
2018-08-28T23:56:57.404Z,9.20
2018-08-28T23:59:24.536Z,9.93
